Terminal Aerodrome Forecast
Issued by NWS Memphis, TN

Home | Current Version | Previous Version | Text Only | Print | Product List | Glossary On
Versions: 1 2 3 4 5 6 7 8 9 10 11 12 13 14 15 16 17
000
FTUS44 KMEG 281733
TAFMKL
TAF
KMKL 281733Z 2818/2918 16006KT P6SM BKN015 OVC025
     FM281900 15006KT P6SM SCT025 BKN035
     FM290100 11003KT P6SM SCT040 BKN150
     FM290700 00000KT 5SM BR BKN010
      TEMPO 2909/2913 3SM BR OVC005
     FM291400 16005KT P6SM SCT005 BKN012
     FM291600 17007KT P6SM VCTS BKN025CB=

USA.gov is the U.S. government's official web portal to all federal, state and local government web resources and services.